Terminal Aerodrome Forecast
Issued by NWS Louisville, KY

Home | Current Version | Previous Version | Text Only | Print | Product List | Glossary On
Versions: 1 2 3 4 5 6 7 8 9 10 11 12 13 14 15 16 17 18 19
000
FTUS43 KLMK 081700
TAFBWG
TAF
KBWG 081738Z 0818/0918 24012G20KT P6SM SCT040 SCT120
     FM082000 24011G19KT P6SM VCTS SCT040CB BKN150
      TEMPO 0820/0824 3SM -TSRA BKN025CB
     FM090300 23008KT P6SM SCT040 BKN100
     FM091400 29006KT P6SM SCT050=

USA.gov is the U.S. government's official web portal to all federal, state and local government web resources and services.